Time;durP1;ratioP1;P1;durP2;ratioP2;P2;SDS_P1;SDS_P2;PMS_P1;PMS_P2;Temp;Humidity;BMP_temperature;BMP_pressure;BME280_temperature;BME280_humidity;BME280_pressure;Samples;Min_cycle;Max_cycle;Signal;HPM_P1;HPM_P2
2023/08/24 00:02:07;;;;;;;10.20;5.93;;;24.40;99.90;;;;;;6226164;23;20023;-84
2023/08/24 00:04:34;;;;;;;9.68;6.55;;;24.40;99.90;;;;;;6201561;23;20055;-84
2023/08/24 00:07:03;;;;;;;10.80;6.43;;;24.30;99.90;;;;;;6226171;23;20032;-84
2023/08/24 00:09:30;;;;;;;10.13;6.68;;;24.30;99.90;;;;;;6224860;23;20444;-84
2023/08/24 00:11:57;;;;;;;8.68;5.85;;;24.20;99.90;;;;;;6225835;23;20019;-84
2023/08/24 00:14:24;;;;;;;7.70;5.80;;;24.20;99.90;;;;;;6227492;23;20043;-84
2023/08/24 00:16:52;;;;;;;9.88;6.43;;;24.20;99.90;;;;;;6226017;23;20467;-84
2023/08/24 00:19:19;;;;;;;8.98;6.47;;;24.30;99.90;;;;;;6226510;23;20020;-84
2023/08/24 00:21:46;;;;;;;10.07;6.45;;;24.30;99.90;;;;;;6225103;23;20047;-84
2023/08/24 00:24:13;;;;;;;10.98;6.15;;;24.10;99.90;;;;;;6201296;23;20016;-84
2023/08/24 00:26:40;;;;;;;12.02;5.95;;;24.20;99.90;;;;;;6227344;23;20120;-84
2023/08/24 00:29:07;;;;;;;9.25;6.18;;;24.20;99.90;;;;;;6200514;23;20031;-84
2023/08/24 00:31:34;;;;;;;10.63;5.75;;;24.10;99.90;;;;;;6226392;23;20016;-84
2023/08/24 00:34:02;;;;;;;10.85;5.72;;;24.20;99.90;;;;;;6200319;23;20076;-84
2023/08/24 00:36:29;;;;;;;7.18;5.00;;;24.30;99.90;;;;;;6227060;23;20038;-84
2023/08/24 00:38:56;;;;;;;11.10;5.72;;;24.30;99.90;;;;;;6252138;23;20024;-84
2023/08/24 00:41:25;;;;;;;6.97;5.30;;;24.30;99.90;;;;;;6201682;23;20020;-84
2023/08/24 00:43:53;;;;;;;9.10;4.93;;;24.30;99.90;;;;;;6202932;23;20023;-84
2023/08/24 00:46:22;;;;;;;8.43;5.38;;;24.20;99.90;;;;;;6227374;23;20515;-84
2023/08/24 00:48:51;;;;;;;11.40;5.80;;;24.20;99.90;;;;;;6228945;23;20317;-84
2023/08/24 00:51:18;;;;;;;10.00;5.70;;;24.20;99.90;;;;;;6229221;23;20016;-84
2023/08/24 00:53:46;;;;;;;8.00;5.53;;;24.20;99.90;;;;;;6228884;23;20020;-84
2023/08/24 00:56:13;;;;;;;8.13;5.63;;;24.20;99.90;;;;;;6227925;23;20020;-84
2023/08/24 00:58:41;;;;;;;8.30;5.13;;;24.20;99.90;;;;;;6229802;23;20016;-84
2023/08/24 01:01:08;;;;;;;8.00;5.70;;;24.10;99.90;;;;;;6228433;23;20107;-84
2023/08/24 01:03:36;;;;;;;8.80;5.32;;;24.10;99.90;;;;;;6227253;23;20027;-84
2023/08/24 01:06:04;;;;;;;9.07;5.65;;;24.10;99.90;;;;;;6227309;23;20034;-84
2023/08/24 01:08:31;;;;;;;9.25;5.43;;;24.00;99.90;;;;;;6228342;23;20111;-84
2023/08/24 01:11:24;;;;;;;7.60;5.32;;;24.00;99.90;;;;;;6226947;23;20040;-84
2023/08/24 01:14:01;;;;;;;8.30;5.68;;;23.80;99.90;;;;;;6227456;23;20026;-84
2023/08/24 01:16:31;;;;;;;6.22;4.65;;;23.90;99.90;;;;;;6228999;23;20020;-84
2023/08/24 01:19:00;;;;;;;7.15;4.75;;;23.90;99.90;;;;;;6228963;23;20020;-84
2023/08/24 01:21:29;;;;;;;6.55;5.30;;;24.00;99.90;;;;;;6202562;23;20072;-84
2023/08/24 01:24:18;;;;;;;8.85;5.30;;;24.00;99.90;;;;;;6228452;23;20028;-85
2023/08/24 01:26:49;;;;;;;10.32;5.05;;;23.90;99.90;;;;;;6226987;23;20028;-84
2023/08/24 01:29:16;;;;;;;6.18;4.70;;;24.00;99.90;;;;;;6227177;23;20032;-84
2023/08/24 01:31:47;;;;;;;7.72;5.10;;;23.90;99.90;;;;;;6226739;23;20099;-84
2023/08/24 01:34:14;;;;;;;8.63;4.38;;;24.00;99.90;;;;;;6203783;23;20020;-84
2023/08/24 01:36:44;;;;;;;10.15;5.13;;;23.90;99.90;;;;;;6202035;23;20024;-84
2023/08/24 01:39:39;;;;;;;7.82;4.30;;;23.90;99.90;;;;;;6226603;23;20050;-82
2023/08/24 01:42:11;;;;;;;8.57;5.13;;;23.80;99.90;;;;;;6197807;23;20024;-85
2023/08/24 01:44:42;;;;;;;8.90;5.00;;;23.90;99.90;;;;;;6223718;23;20337;-83
2023/08/24 01:47:12;;;;;;;9.07;5.35;;;23.80;99.90;;;;;;6224876;23;20039;-83
2023/08/24 01:49:41;;;;;;;8.85;5.22;;;23.80;99.90;;;;;;6201029;23;20016;-83
2023/08/24 01:52:10;;;;;;;8.45;5.45;;;23.80;99.90;;;;;;6227537;23;20023;-85
2023/08/24 01:54:38;;;;;;;8.52;5.28;;;23.80;99.90;;;;;;6201338;23;20027;-83
2023/08/24 01:57:06;;;;;;;8.77;4.93;;;23.80;99.90;;;;;;6202683;23;20647;-83
2023/08/24 01:59:33;;;;;;;8.90;5.72;;;23.80;99.90;;;;;;6226207;23;20047;-83
2023/08/24 02:02:02;;;;;;;9.35;5.28;;;23.80;99.90;;;;;;6224791;23;20044;-85
2023/08/24 02:04:30;;;;;;;9.07;5.45;;;23.70;99.90;;;;;;6227248;23;20020;-83
2023/08/24 02:06:57;;;;;;;8.25;5.07;;;23.80;99.90;;;;;;6226271;23;20028;-83
2023/08/24 02:09:24;;;;;;;5.82;4.60;;;23.80;99.90;;;;;;6202086;23;20043;-83
2023/08/24 02:11:51;;;;;;;7.95;5.00;;;23.80;99.90;;;;;;6225939;23;20103;-84
2023/08/24 02:14:18;;;;;;;14.50;6.30;;;23.70;99.90;;;;;;6227095;23;20638;-83
2023/08/24 02:16:45;;;;;;;10.10;5.30;;;23.70;99.90;;;;;;6202434;23;20036;-83
2023/08/24 02:19:13;;;;;;;9.57;6.20;;;23.70;99.90;;;;;;6201668;23;20082;-83
2023/08/24 02:21:40;;;;;;;8.15;5.32;;;23.60;99.90;;;;;;6226141;23;20114;-83
2023/08/24 02:24:07;;;;;;;9.63;5.57;;;23.60;99.90;;;;;;6226457;23;20069;-83
2023/08/24 02:26:35;;;;;;;7.18;5.10;;;23.60;99.90;;;;;;6202667;23;20070;-83
2023/08/24 02:29:02;;;;;;;7.50;5.63;;;23.70;99.90;;;;;;6200182;23;20024;-83
2023/08/24 02:31:30;;;;;;;8.45;5.65;;;23.60;99.90;;;;;;6225119;23;20043;-83
2023/08/24 02:33:57;;;;;;;8.20;5.20;;;23.60;99.90;;;;;;6200154;23;20072;-83
2023/08/24 02:36:24;;;;;;;8.25;5.10;;;23.70;99.90;;;;;;6226510;23;20083;-83
2023/08/24 02:38:54;;;;;;;7.65;5.35;;;23.60;99.90;;;;;;6201951;23;20080;-85
2023/08/24 02:41:22;;;;;;;7.70;5.68;;;23.60;99.90;;;;;;6227535;23;20032;-83
2023/08/24 02:43:49;;;;;;;11.07;6.10;;;23.60;99.90;;;;;;6227045;23;20074;-85
2023/08/24 02:46:18;;;;;;;8.07;5.55;;;23.60;99.90;;;;;;6225638;23;20588;-83
2023/08/24 02:48:47;;;;;;;7.73;4.87;;;23.60;99.90;;;;;;6226233;23;20032;-83
2023/08/24 02:51:15;;;;;;;8.05;5.28;;;23.50;99.90;;;;;;6225838;23;20020;-83
2023/08/24 02:53:42;;;;;;;8.40;5.40;;;23.50;99.90;;;;;;6200333;23;20443;-84
2023/08/24 02:56:09;;;;;;;10.68;5.55;;;23.50;99.90;;;;;;6226692;23;20020;-83
2023/08/24 02:58:36;;;;;;;7.97;5.65;;;23.50;99.90;;;;;;6202919;23;20360;-84
2023/08/24 03:01:07;;;;;;;8.50;5.63;;;23.50;99.90;;;;;;6225836;23;20078;-82
2023/08/24 03:03:39;;;;;;;7.63;5.53;;;23.50;99.90;;;;;;6225091;23;20047;-82
2023/08/24 03:06:07;;;;;;;7.50;4.80;;;23.50;99.90;;;;;;6226018;23;20020;-85
2023/08/24 03:08:36;;;;;;;9.38;5.40;;;23.50;99.90;;;;;;6227842;23;20031;-83
2023/08/24 03:11:04;;;;;;;7.65;5.32;;;23.50;99.90;;;;;;6226229;23;20039;-84
2023/08/24 03:13:32;;;;;;;8.40;5.57;;;23.50;99.90;;;;;;6227325;23;20040;-83
2023/08/24 03:16:03;;;;;;;7.38;5.38;;;23.50;99.90;;;;;;6225388;23;20024;-83
2023/08/24 03:18:32;;;;;;;10.48;5.68;;;23.40;99.90;;;;;;6225690;23;20019;-84
2023/08/24 03:21:01;;;;;;;8.40;5.40;;;23.40;99.90;;;;;;6228168;23;20028;-85
2023/08/24 03:23:28;;;;;;;7.72;5.03;;;23.40;99.90;;;;;;6201242;23;20099;-81
2023/08/24 03:25:55;;;;;;;9.50;5.72;;;23.40;99.90;;;;;;6226386;23;20016;-84
2023/08/24 03:28:22;;;;;;;8.52;5.28;;;23.40;99.90;;;;;;6226721;23;20020;-84
2023/08/24 03:30:55;;;;;;;9.20;5.75;;;23.40;99.90;;;;;;6225962;23;20047;-83
2023/08/24 03:33:24;;;;;;;9.95;6.53;;;23.40;99.90;;;;;;6225490;23;20044;-84
2023/08/24 03:35:51;;;;;;;9.05;6.30;;;23.40;99.90;;;;;;6221742;23;20035;-83
2023/08/24 03:38:19;;;;;;;7.90;5.55;;;23.30;99.90;;;;;;6221496;23;20024;-83
2023/08/24 03:40:47;;;;;;;11.25;5.30;;;23.30;99.90;;;;;;6199739;23;20028;-84
2023/08/24 03:43:15;;;;;;;8.70;5.40;;;23.30;99.90;;;;;;6222773;23;20047;-84
2023/08/24 03:45:43;;;;;;;10.18;6.32;;;23.30;99.90;;;;;;6199174;23;20070;-83
2023/08/24 03:48:11;;;;;;;10.13;5.95;;;23.30;99.90;;;;;;6198844;23;20442;-82
2023/08/24 03:50:38;;;;;;;8.60;5.95;;;23.30;99.90;;;;;;6225428;23;20035;-82
2023/08/24 03:53:06;;;;;;;7.20;4.43;;;23.30;99.90;;;;;;6200184;23;20016;-83
2023/08/24 03:55:34;;;;;;;9.77;5.47;;;23.30;99.90;;;;;;6225386;23;20413;-83
2023/08/24 03:58:01;;;;;;;9.48;6.25;;;23.20;99.90;;;;;;6225743;23;20074;-84
2023/08/24 04:00:31;;;;;;;8.98;6.03;;;23.20;99.90;;;;;;6225066;23;20444;-84
2023/08/24 04:02:59;;;;;;;7.45;5.20;;;23.20;99.90;;;;;;6223287;23;20087;-84
2023/08/24 04:05:27;;;;;;;12.38;6.50;;;23.20;99.90;;;;;;6199087;23;20044;-84
2023/08/24 04:07:54;;;;;;;11.57;6.95;;;23.20;99.90;;;;;;6200798;23;20020;-83
2023/08/24 04:10:22;;;;;;;9.95;5.75;;;23.20;99.90;;;;;;6224555;23;20026;-84
2023/08/24 04:12:49;;;;;;;9.48;6.20;;;23.20;99.90;;;;;;6199937;23;20020;-83
2023/08/24 04:15:17;;;;;;;9.32;6.20;;;23.20;99.90;;;;;;6223949;23;20416;-83
2023/08/24 04:17:44;;;;;;;10.68;6.00;;;23.20;99.90;;;;;;6200286;23;20027;-84
2023/08/24 04:20:11;;;;;;;8.48;5.10;;;23.20;99.90;;;;;;6226191;23;20016;-83
2023/08/24 04:22:39;;;;;;;10.73;6.53;;;23.20;99.90;;;;;;6227018;23;20028;-83
2023/08/24 04:25:06;;;;;;;11.52;6.07;;;23.20;99.90;;;;;;6227182;23;20020;-84
2023/08/24 04:27:34;;;;;;;10.70;6.13;;;23.20;99.90;;;;;;6226409;23;20012;-83
2023/08/24 04:30:03;;;;;;;12.70;6.35;;;23.20;99.90;;;;;;6226098;23;20070;-83
2023/08/24 04:32:32;;;;;;;9.35;6.28;;;23.20;99.90;;;;;;6225734;23;20020;-83
2023/08/24 04:34:59;;;;;;;15.00;6.95;;;23.20;99.90;;;;;;6225932;23;20407;-84
2023/08/24 04:37:26;;;;;;;9.32;6.22;;;23.20;99.90;;;;;;6226564;23;20046;-83
2023/08/24 04:39:54;;;;;;;10.18;6.28;;;23.20;99.90;;;;;;6200693;23;20443;-83
2023/08/24 04:42:27;;;;;;;12.23;7.03;;;23.20;99.90;;;;;;6225618;23;20031;-83
2023/08/24 04:44:54;;;;;;;10.90;7.38;;;23.20;99.90;;;;;;6224411;23;20054;-84
2023/08/24 04:47:23;;;;;;;14.40;8.13;;;23.20;99.90;;;;;;6225879;23;20024;-83
2023/08/24 04:49:50;;;;;;;11.32;7.70;;;23.20;99.90;;;;;;6226492;23;20028;-83
2023/08/24 04:52:17;;;;;;;9.73;6.88;;;23.20;99.90;;;;;;6224576;23;20020;-84
2023/08/24 04:54:44;;;;;;;10.93;7.45;;;23.20;99.90;;;;;;6226088;23;20023;-84
2023/08/24 04:57:11;;;;;;;12.20;7.65;;;23.30;99.90;;;;;;6226330;23;20104;-83
2023/08/24 04:59:38;;;;;;;12.50;7.97;;;23.30;99.90;;;;;;6225196;23;20024;-83
2023/08/24 05:02:06;;;;;;;11.48;6.60;;;23.30;99.90;;;;;;6225226;23;20016;-83
2023/08/24 05:04:33;;;;;;;12.10;6.90;;;23.30;99.90;;;;;;6226178;23;20073;-83
2023/08/24 05:07:00;;;;;;;9.30;6.60;;;23.30;99.90;;;;;;6202857;23;20086;-84
2023/08/24 05:09:27;;;;;;;11.48;7.38;;;23.40;99.90;;;;;;6228124;23;20012;-83
2023/08/24 05:11:55;;;;;;;14.27;7.45;;;23.40;99.90;;;;;;6226648;23;20076;-84
2023/08/24 05:14:22;;;;;;;10.98;6.95;;;23.50;99.90;;;;;;6202667;23;20062;-82
2023/08/24 05:16:49;;;;;;;12.45;7.03;;;23.50;99.90;;;;;;6228847;23;20443;-82
2023/08/24 05:19:16;;;;;;;9.63;6.90;;;23.60;99.90;;;;;;6204082;23;20020;-84
2023/08/24 05:21:43;;;;;;;14.27;7.40;;;23.60;99.90;;;;;;6203563;23;20019;-81
2023/08/24 05:24:10;;;;;;;10.30;7.32;;;23.60;99.90;;;;;;6203345;23;20100;-82
2023/08/24 05:26:37;;;;;;;11.88;6.65;;;23.60;99.90;;;;;;6227194;23;20026;-82
2023/08/24 05:29:04;;;;;;;10.90;7.32;;;23.60;99.90;;;;;;6227880;23;20046;-83
2023/08/24 05:31:31;;;;;;;11.35;7.43;;;23.70;99.90;;;;;;6226532;23;20043;-83
2023/08/24 05:33:59;;;;;;;9.88;7.07;;;23.80;99.90;;;;;;6200873;23;20023;-83
2023/08/24 05:36:27;;;;;;;9.10;6.68;;;23.80;99.90;;;;;;6221928;23;20020;-83
2023/08/24 05:38:56;;;;;;;9.85;6.22;;;23.80;99.90;;;;;;6221024;23;20078;-83
2023/08/24 05:41:33;;;;;;;12.75;6.68;;;23.80;99.90;;;;;;6222008;23;20034;-82
2023/08/24 05:44:00;;;;;;;9.93;6.63;;;23.90;99.90;;;;;;6196805;23;20020;-82
2023/08/24 05:46:27;;;;;;;8.90;6.35;;;23.90;99.90;;;;;;6197803;23;20020;-83
2023/08/24 05:48:58;;;;;;;13.82;7.00;;;24.00;99.90;;;;;;6218560;23;20372;-83
2023/08/24 05:51:25;;;;;;;10.65;6.20;;;24.10;99.90;;;;;;6223234;23;20020;-83
2023/08/24 05:53:55;;;;;;;8.85;5.97;;;24.10;99.90;;;;;;6222465;23;20078;-83
2023/08/24 05:56:22;;;;;;;9.57;6.45;;;24.10;99.90;;;;;;6220326;23;20058;-83
2023/08/24 05:58:50;;;;;;;9.48;6.05;;;24.10;99.90;;;;;;6220209;23;20475;-82
2023/08/24 06:01:17;;;;;;;11.00;6.10;;;24.10;99.90;;;;;;6221913;23;20086;-83
2023/08/24 06:03:44;;;;;;;8.77;6.10;;;24.20;99.90;;;;;;6197397;23;20030;-83
2023/08/24 06:06:12;;;;;;;9.57;6.35;;;24.30;99.90;;;;;;6195272;23;20030;-82
2023/08/24 06:08:39;;;;;;;9.15;6.00;;;24.30;99.90;;;;;;6219840;23;20301;-83
2023/08/24 06:11:07;;;;;;;9.80;5.50;;;24.40;99.90;;;;;;6222546;23;20020;-83
2023/08/24 06:13:34;;;;;;;7.88;5.88;;;24.60;99.90;;;;;;6196185;23;20110;-83
2023/08/24 06:16:01;;;;;;;11.98;7.70;;;24.60;99.90;;;;;;6195881;23;20016;-83
2023/08/24 06:18:29;;;;;;;10.15;7.13;;;24.80;99.90;;;;;;6221584;23;20044;-83
2023/08/24 06:20:56;;;;;;;11.70;7.10;;;24.90;99.90;;;;;;6219924;23;20024;-82
2023/08/24 06:23:23;;;;;;;8.55;6.00;;;25.00;99.90;;;;;;6197409;23;20023;-83
2023/08/24 06:25:51;;;;;;;13.07;6.18;;;25.10;99.90;;;;;;6197330;23;20581;-83
2023/08/24 06:28:18;;;;;;;9.82;6.30;;;25.20;99.90;;;;;;6222513;23;20455;-83
2023/08/24 06:30:47;;;;;;;10.63;6.82;;;25.30;99.90;;;;;;6220067;23;20039;-82
2023/08/24 06:33:18;;;;;;;12.25;5.78;;;25.30;99.90;;;;;;6218843;23;20494;-83
2023/08/24 06:35:45;;;;;;;7.77;5.03;;;25.40;99.90;;;;;;6219956;23;20395;-82
2023/08/24 06:38:13;;;;;;;9.70;5.85;;;25.50;99.90;;;;;;6217344;23;20447;-82
2023/08/24 06:40:40;;;;;;;8.18;5.22;;;25.70;99.90;;;;;;6219806;23;20020;-81
2023/08/24 06:43:07;;;;;;;8.38;6.00;;;25.70;99.90;;;;;;6216587;23;20087;-83
2023/08/24 06:45:34;;;;;;;7.95;6.10;;;25.80;99.90;;;;;;6194823;23;20020;-82
2023/08/24 06:48:02;;;;;;;12.30;7.55;;;25.90;99.90;;;;;;6217257;23;20034;-81
2023/08/24 06:50:31;;;;;;;8.25;5.82;;;25.90;99.90;;;;;;6218546;23;20461;-83
2023/08/24 06:52:58;;;;;;;10.70;6.63;;;26.00;99.90;;;;;;6194203;23;20040;-82
2023/08/24 06:55:27;;;;;;;7.35;6.13;;;26.10;99.90;;;;;;6216545;23;20051;-82
2023/08/24 06:57:54;;;;;;;10.45;6.50;;;26.10;99.90;;;;;;6245941;23;20012;-84
2023/08/24 07:00:22;;;;;;;8.63;6.00;;;26.20;99.90;;;;;;6217125;23;20325;-83
2023/08/24 07:02:52;;;;;;;8.80;5.90;;;26.30;99.90;;;;;;6219643;23;20024;-85
2023/08/24 07:05:20;;;;;;;9.02;6.07;;;26.40;99.90;;;;;;6193810;23;20066;-84
2023/08/24 07:07:49;;;;;;;7.65;6.18;;;26.40;99.90;;;;;;6219008;23;20024;-83
2023/08/24 07:10:17;;;;;;;10.52;6.63;;;26.40;99.90;;;;;;6221454;23;20024;-83
2023/08/24 07:12:45;;;;;;;8.80;6.13;;;26.40;99.90;;;;;;6219646;23;20070;-83
2023/08/24 07:15:13;;;;;;;8.48;6.20;;;26.50;99.90;;;;;;6219159;23;20024;-82
2023/08/24 07:17:40;;;;;;;9.10;6.10;;;26.60;99.90;;;;;;6195615;23;20023;-85
2023/08/24 07:20:08;;;;;;;7.20;5.47;;;26.70;99.90;;;;;;6217218;23;20016;-85
2023/08/24 07:22:36;;;;;;;8.05;5.82;;;26.80;99.90;;;;;;6216358;23;20079;-83
2023/08/24 07:25:07;;;;;;;9.93;6.50;;;26.80;99.90;;;;;;6212635;23;20486;-83
2023/08/24 07:27:35;;;;;;;9.32;6.68;;;26.90;99.90;;;;;;6191943;23;20055;-83
2023/08/24 07:30:09;;;;;;;7.88;6.00;;;26.90;99.90;;;;;;6214852;23;20028;-85
2023/08/24 07:32:56;;;;;;;9.43;6.65;;;27.10;99.90;;;;;;6214316;23;20031;-85
2023/08/24 07:35:27;;;;;;;9.60;6.03;;;27.20;99.90;;;;;;6212488;23;20060;-84
2023/08/24 07:37:54;;;;;;;10.05;6.63;;;27.30;99.90;;;;;;6218158;23;20016;-84
2023/08/24 07:40:21;;;;;;;10.45;6.60;;;27.30;99.90;;;;;;6215677;23;20020;-82
2023/08/24 07:42:54;;;;;;;9.57;6.05;;;27.30;99.90;;;;;;6214734;23;20359;-84
2023/08/24 07:45:23;;;;;;;7.82;6.13;;;27.40;99.90;;;;;;6215048;23;20530;-81
2023/08/24 07:47:50;;;;;;;9.55;6.65;;;27.50;99.90;;;;;;6213716;23;20031;-84
2023/08/24 07:50:18;;;;;;;10.85;6.45;;;27.50;99.90;;;;;;6220544;23;20539;-84
2023/08/24 07:52:45;;;;;;;8.70;6.07;;;27.60;99.90;;;;;;6211255;23;20024;-82
2023/08/24 07:55:12;;;;;;;9.15;6.15;;;27.60;99.90;;;;;;6217537;23;20020;-84
2023/08/24 07:57:39;;;;;;;10.93;7.25;;;27.70;99.90;;;;;;6216438;23;20352;-82
2023/08/24 08:00:09;;;;;;;7.95;6.03;;;27.70;99.90;;;;;;6187378;23;20024;-82
2023/08/24 08:02:40;;;;;;;10.27;6.40;;;27.70;99.90;;;;;;6215819;23;20024;-84
2023/08/24 08:05:07;;;;;;;9.73;6.57;;;27.80;99.90;;;;;;6190927;23;20360;-82
2023/08/24 08:07:35;;;;;;;7.63;6.03;;;27.80;99.90;;;;;;6244679;23;20102;-83
2023/08/24 08:10:03;;;;;;;8.15;5.93;;;27.70;99.10;;;;;;6196556;23;20094;-83
2023/08/24 08:12:32;;;;;;;8.60;5.90;;;27.80;99.90;;;;;;6219092;23;20330;-83
2023/08/24 08:14:59;;;;;;;7.40;5.72;;;27.80;99.70;;;;;;6215234;23;20031;-84
2023/08/24 08:17:30;;;;;;;10.38;6.45;;;27.80;99.10;;;;;;6190135;23;20077;-84
2023/08/24 08:20:14;;;;;;;12.05;6.75;;;27.80;98.20;;;;;;6193047;23;20320;-82
2023/08/24 08:22:41;;;;;;;11.98;6.43;;;27.90;99.50;;;;;;6242623;23;20432;-84
2023/08/24 08:25:08;;;;;;;8.40;5.70;;;28.00;99.80;;;;;;6217302;23;20024;-82
2023/08/24 08:27:35;;;;;;;10.52;6.80;;;28.10;99.70;;;;;;6213881;23;20039;-83
2023/08/24 08:30:04;;;;;;;8.63;6.50;;;28.10;99.40;;;;;;6214405;23;20020;-84
2023/08/24 08:32:32;;;;;;;8.45;6.40;;;28.10;99.90;;;;;;6213649;23;20118;-85
2023/08/24 08:35:00;;;;;;;10.73;6.28;;;28.00;98.80;;;;;;6213336;23;20439;-83
2023/08/24 08:37:30;;;;;;;9.68;6.38;;;27.90;99.30;;;;;;6214679;23;20474;-83
2023/08/24 08:39:57;;;;;;;9.00;5.90;;;27.90;99.00;;;;;;6214983;23;20526;-84
2023/08/24 08:42:24;;;;;;;12.27;6.97;;;28.00;99.60;;;;;;6190109;23;20321;-84
2023/08/24 08:44:54;;;;;;;8.95;6.15;;;28.10;99.60;;;;;;6214803;23;20135;-84
2023/08/24 08:47:22;;;;;;;12.88;6.70;;;28.20;98.90;;;;;;6214375;23;20027;-82
2023/08/24 08:49:52;;;;;;;8.07;6.00;;;28.20;98.50;;;;;;6214892;23;20028;-82
2023/08/24 08:52:19;;;;;;;9.18;6.28;;;28.20;98.70;;;;;;6216015;23;20543;-84
2023/08/24 08:54:46;;;;;;;7.82;6.30;;;28.30;99.30;;;;;;6218780;23;20016;-84
2023/08/24 08:57:16;;;;;;;8.40;6.60;;;28.20;97.90;;;;;;6191788;23;20086;-83
2023/08/24 08:59:43;;;;;;;8.50;5.28;;;28.10;94.90;;;;;;6214616;23;20039;-85
2023/08/24 09:02:15;;;;;;;9.65;6.10;;;28.20;97.00;;;;;;6189535;23;20119;-84
2023/08/24 09:04:45;;;;;;;6.88;5.28;;;28.10;94.80;;;;;;6192327;23;20447;-84
2023/08/24 09:07:16;;;;;;;8.95;6.43;;;28.20;95.90;;;;;;6217096;23;20028;-83
2023/08/24 09:09:43;;;;;;;8.88;6.32;;;28.20;97.40;;;;;;6217501;23;20023;-83
2023/08/24 09:12:11;;;;;;;8.82;6.25;;;28.20;96.90;;;;;;6190583;23;20391;-82
2023/08/24 09:14:39;;;;;;;7.63;6.15;;;28.20;96.50;;;;;;6216053;23;20103;-82
2023/08/24 09:17:07;;;;;;;9.00;5.90;;;28.30;96.10;;;;;;6221028;23;20043;-81
2023/08/24 09:19:35;;;;;;;7.78;5.70;;;28.20;95.90;;;;;;6191204;23;20028;-84
2023/08/24 09:22:04;;;;;;;8.85;5.40;;;28.30;96.70;;;;;;6189583;23;20111;-83
2023/08/24 09:24:35;;;;;;;8.63;5.40;;;28.30;95.40;;;;;;6192114;23;20024;-82
2023/08/24 09:27:16;;;;;;;6.38;5.50;;;28.30;94.10;;;;;;6242098;23;20042;-83
2023/08/24 09:29:48;;;;;;;8.15;5.30;;;28.40;94.70;;;;;;6218244;23;20024;-84
2023/08/24 09:32:15;;;;;;;7.35;5.72;;;28.40;94.80;;;;;;6214865;23;20102;-81
2023/08/24 09:34:43;;;;;;;8.50;4.97;;;28.50;94.30;;;;;;6214587;23;20087;-85
2023/08/24 09:37:15;;;;;;;8.90;5.55;;;28.50;94.40;;;;;;6216681;23;20336;-81
2023/08/24 09:39:42;;;;;;;;;;;28.50;93.90;;;;;;6218297;23;20051;-82
2023/08/24 09:42:09;;;;;;;9.35;5.50;;;28.40;94.90;;;;;;6166492;23;19939;-83
2023/08/24 09:44:36;;;;;;;6.55;5.20;;;28.50;93.60;;;;;;6191767;23;20032;-84
2023/08/24 09:47:11;;;;;;;8.20;5.45;;;28.50;93.80;;;;;;6191370;23;20452;-83
2023/08/24 09:49:38;;;;;;;7.88;5.60;;;28.60;93.40;;;;;;6215958;23;20028;-83
2023/08/24 09:52:07;;;;;;;9.00;5.82;;;28.60;93.70;;;;;;6216064;23;20494;-81
2023/08/24 09:54:40;;;;;;;7.38;5.45;;;28.50;92.30;;;;;;6217300;23;20068;-83
2023/08/24 09:57:09;;;;;;;7.22;4.97;;;28.40;91.30;;;;;;6217888;23;20023;-84
2023/08/24 09:59:41;;;;;;;7.15;5.10;;;28.40;91.50;;;;;;6192135;23;20024;-84
2023/08/24 10:02:20;;;;;;;6.15;5.10;;;28.40;92.60;;;;;;6218701;23;20074;-82
2023/08/24 10:04:52;;;;;;;9.38;5.90;;;28.50;93.10;;;;;;6214348;23;20031;-83
2023/08/24 10:07:20;;;;;;;;;;;28.50;92.40;;;;;;6190605;23;20031;-83
2023/08/24 10:10:03;;;;;;;7.07;5.32;;;28.50;90.80;;;;;;6189778;23;19920;-81
2023/08/24 10:12:36;;;;;;;6.85;4.68;;;28.60;90.20;;;;;;6190445;23;20027;-84
2023/08/24 10:15:08;;;;;;;7.78;5.22;;;28.60;90.10;;;;;;6214689;23;20050;-84
2023/08/24 10:17:37;;;;;;;9.55;5.97;;;28.60;91.40;;;;;;6216894;23;20082;-82
2023/08/24 10:20:09;;;;;;;7.25;5.35;;;28.70;90.90;;;;;;6192589;23;20020;-84
2023/08/24 10:22:37;;;;;;;8.07;5.30;;;28.70;90.70;;;;;;6217057;23;20024;-82
2023/08/24 10:25:06;;;;;;;7.07;5.13;;;28.70;90.50;;;;;;6218057;23;20020;-85
2023/08/24 10:27:34;;;;;;;8.93;6.07;;;28.90;91.60;;;;;;6216742;23;20020;-84
2023/08/24 10:30:01;;;;;;;6.90;5.07;;;28.90;90.10;;;;;;6216256;23;20467;-85
2023/08/24 10:32:29;;;;;;;6.53;5.30;;;28.80;91.10;;;;;;6215523;23;20044;-84
2023/08/24 10:34:57;;;;;;;6.90;5.10;;;29.00;91.30;;;;;;6215977;23;20510;-84
2023/08/24 10:37:28;;;;;;;6.60;5.20;;;29.00;89.90;;;;;;6191044;23;20024;-84
2023/08/24 10:39:55;;;;;;;5.57;4.50;;;29.00;89.50;;;;;;6190754;23;20016;-84
2023/08/24 10:42:22;;;;;;;8.48;4.97;;;29.00;88.30;;;;;;6189488;23;20025;-84
2023/08/24 10:44:50;;;;;;;7.18;5.13;;;29.10;88.50;;;;;;6216764;23;20028;-83
2023/08/24 10:47:24;;;;;;;6.88;5.40;;;29.00;88.10;;;;;;6214258;23;20056;-84
2023/08/24 10:49:54;;;;;;;7.85;5.15;;;28.90;90.10;;;;;;6194585;23;20335;-84
2023/08/24 10:52:23;;;;;;;8.77;5.18;;;28.90;90.60;;;;;;6216456;23;20046;-82
2023/08/24 10:54:54;;;;;;;7.35;5.40;;;29.00;90.60;;;;;;6189439;23;20054;-84
2023/08/24 10:57:29;;;;;;;7.78;5.30;;;29.00;89.20;;;;;;6191159;23;20028;-84
2023/08/24 11:00:07;;;;;;;7.03;4.90;;;29.00;85.40;;;;;;6214180;23;20024;-83
2023/08/24 11:02:42;;;;;;;6.95;4.82;;;29.20;86.00;;;;;;6217141;23;20040;-84
2023/08/24 11:05:22;;;;;;;6.90;5.10;;;29.10;83.00;;;;;;6216127;23;20099;-84
2023/08/24 11:07:55;;;;;;;6.55;4.72;;;29.00;84.80;;;;;;6214570;23;20654;-84
2023/08/24 11:10:30;;;;;;;6.35;4.85;;;29.00;84.00;;;;;;6216126;23;20371;-83
2023/08/24 11:13:03;;;;;;;8.38;4.60;;;29.10;84.90;;;;;;6191990;23;20026;-83
2023/08/24 11:15:31;;;;;;;6.07;5.32;;;29.10;82.80;;;;;;6217711;23;20031;-84
2023/08/24 11:18:26;;;;;;;5.68;3.85;;;29.30;84.10;;;;;;6217156;23;20019;-83
2023/08/24 11:21:02;;;;;;;4.88;3.50;;;29.20;78.40;;;;;;6216621;23;20019;-83
2023/08/24 11:23:29;;;;;;;7.95;3.83;;;29.10;76.70;;;;;;6217107;23;20028;-83
2023/08/24 11:26:00;;;;;;;4.72;3.60;;;28.90;77.90;;;;;;6215005;23;20020;-83
2023/08/24 11:28:29;;;;;;;5.22;3.80;;;28.80;78.40;;;;;;6190790;23;20024;-83
2023/08/24 11:30:57;;;;;;;5.90;4.00;;;28.70;77.60;;;;;;6244226;23;20020;-82
2023/08/24 11:33:33;;;;;;;6.80;3.80;;;28.80;77.70;;;;;;6216940;23;20549;-82
2023/08/24 11:36:03;;;;;;;5.85;4.10;;;28.70;78.60;;;;;;6215387;23;20115;-82
2023/08/24 11:38:41;;;;;;;7.75;3.45;;;28.60;78.70;;;;;;6214975;23;20024;-82
2023/08/24 11:41:16;;;;;;;4.63;3.50;;;28.80;75.20;;;;;;6191003;23;20023;-83
2023/08/24 11:43:45;;;;;;;4.72;2.97;;;29.00;74.40;;;;;;6217044;23;20078;-83
2023/08/24 11:46:16;;;;;;;5.70;3.25;;;29.20;73.60;;;;;;6190076;23;20058;-83
2023/08/24 11:48:44;;;;;;;5.03;3.20;;;29.20;73.80;;;;;;6214993;23;20024;-84
2023/08/24 11:51:12;;;;;;;5.72;3.40;;;29.30;71.30;;;;;;6216476;23;20333;-84
2023/08/24 11:53:43;;;;;;;4.13;3.47;;;29.20;73.80;;;;;;6190573;23;20510;-81
2023/08/24 11:56:12;;;;;;;4.25;3.08;;;29.30;73.80;;;;;;6215524;23;20047;-82
2023/08/24 11:58:40;;;;;;;4.78;2.90;;;29.40;73.20;;;;;;6215939;23;20028;-83
2023/08/24 12:01:11;;;;;;;3.92;2.92;;;29.40;72.20;;;;;;6191184;23;20083;-82
2023/08/24 12:03:40;;;;;;;4.68;3.42;;;29.50;70.50;;;;;;6217272;23;20020;-82
2023/08/24 12:06:28;;;;;;;4.60;3.08;;;29.60;70.80;;;;;;6216898;23;20099;-83
2023/08/24 12:08:56;;;;;;;4.47;2.70;;;29.60;69.40;;;;;;6216042;23;20055;-83
2023/08/24 12:11:25;;;;;;;6.30;3.22;;;29.70;69.30;;;;;;6190228;23;20402;-82
2023/08/24 12:13:53;;;;;;;3.88;3.00;;;29.80;69.40;;;;;;6214391;23;20094;-82
2023/08/24 12:16:22;;;;;;;7.53;3.60;;;29.90;68.10;;;;;;6211508;23;20028;-81
2023/08/24 12:18:53;;;;;;;8.27;3.30;;;29.90;67.70;;;;;;6214922;23;20078;-82
2023/08/24 12:21:22;;;;;;;6.43;3.05;;;30.00;66.00;;;;;;6215525;23;20087;-83
2023/08/24 12:24:05;;;;;;;3.95;3.15;;;30.00;66.30;;;;;;6215830;23;20032;-83
2023/08/24 12:26:36;;;;;;;4.80;3.65;;;30.00;67.20;;;;;;6216949;23;20390;-83
2023/08/24 12:29:08;;;;;;;5.67;3.00;;;29.80;67.10;;;;;;6218756;23;20063;-81
2023/08/24 12:31:36;;;;;;;;;;;29.90;68.20;;;;;;6191666;23;20107;-82
2023/08/24 12:34:11;;;;;;;3.78;3.05;;;29.90;68.50;;;;;;6190944;23;19926;-83
2023/08/24 12:36:39;;;;;;;4.78;3.08;;;30.00;66.50;;;;;;6215333;23;20403;-81
2023/08/24 12:39:10;;;;;;;5.03;3.30;;;30.00;66.40;;;;;;6217716;23;20322;-82
2023/08/24 12:41:37;;;;;;;7.57;3.40;;;29.90;66.70;;;;;;6218898;23;20060;-83
2023/08/24 12:44:05;;;;;;;4.53;3.22;;;29.90;65.60;;;;;;6216829;23;20474;-81
2023/08/24 12:46:36;;;;;;;4.57;3.08;;;29.80;67.00;;;;;;6215813;23;20023;-81
2023/08/24 12:49:03;;;;;;;5.57;3.13;;;30.10;65.50;;;;;;6215544;23;20143;-81
2023/08/24 12:51:30;;;;;;;5.70;2.90;;;30.00;65.00;;;;;;6190486;23;20028;-79
2023/08/24 12:53:58;;;;;;;4.65;3.63;;;30.00;66.40;;;;;;6245424;23;20028;-82
2023/08/24 12:56:25;;;;;;;3.47;2.97;;;30.10;65.40;;;;;;6215107;23;20024;-82